Terminal Aerodrome Forecast
Issued by NWS

Home | Current Version | Previous Version | Text Only | Print | Product List | Glossary Off
Versions: 1 2 3 4 5 6 7 8 9 10 11 12 13 14 15 16 17 18 19 20 21 22 23 24

081
FTUS43 KBIS 200833 AAA
TAFMOT
TAF AMD
KMOT 200833Z 2009/2106 31007KT 2SM -RA BR OVC002
     FM201200 28008KT 2SM BR VCSH OVC008
     FM201500 27008KT 2SM BR OVC015
     FM201700 26011KT P6SM SKC
     FM210400 23009KT P6SM SCT090 BKN120=

USA.gov is the U.S. government's official web portal to all federal, state and local government web resources and services.